createdAt,value
2023-05-20T00:01:51.861Z,0.35
2023-05-20T00:03:47.192Z,132.17
2023-05-20T00:05:46.711Z,132.17
2023-05-20T00:07:44.964Z,0.35
2023-05-20T00:09:45.490Z,0.35
2023-05-20T00:11:45.156Z,0.35
2023-05-20T00:13:45.816Z,129.17
2023-05-20T00:15:46.320Z,129.17
2023-05-20T00:17:46.494Z,129.17
2023-05-20T00:19:45.835Z,129.17
2023-05-20T00:21:44.900Z,0.36
2023-05-20T00:23:45.427Z,0.36
2023-05-20T00:25:45.676Z,129.17
2023-05-20T00:27:45.753Z,129.17
2023-05-20T00:29:44.991Z,129.17
2023-05-20T00:31:46.077Z,0.35
2023-05-20T00:33:46.056Z,0.35
2023-05-20T00:35:45.535Z,0.35
2023-05-20T00:37:45.450Z,0.35
2023-05-20T00:39:45.206Z,129.17
2023-05-20T00:41:47.742Z,129.17
2023-05-20T00:43:45.697Z,129.17
2023-05-20T00:45:45.660Z,0.35
2023-05-20T00:47:46.021Z,0.35
2023-05-20T00:49:45.892Z,0.35
2023-05-20T00:51:46.083Z,0.35
2023-05-20T00:53:45.315Z,0.35
2023-05-20T00:55:45.235Z,126.21
2023-05-20T00:57:45.262Z,0.35
2023-05-20T00:59:45.854Z,0.35
2023-05-20T01:01:49.431Z,0.35
2023-05-20T01:03:46.804Z,129.17
2023-05-20T01:05:45.917Z,129.17
2023-05-20T01:07:45.120Z,129.17
2023-05-20T01:09:45.426Z,0.34
2023-05-20T01:11:45.425Z,0.34
2023-05-20T01:13:45.029Z,0.34
2023-05-20T01:15:48.259Z,126.21
2023-05-20T01:17:45.371Z,126.21
2023-05-20T01:19:46.621Z,0.34
2023-05-20T01:21:45.172Z,126.21
2023-05-20T01:23:45.698Z,126.21
2023-05-20T01:25:45.763Z,126.21
2023-05-20T01:27:45.914Z,126.21
2023-05-20T01:29:45.403Z,126.21
2023-05-20T01:31:45.688Z,126.21
2023-05-20T01:33:45.916Z,123.29
2023-05-20T01:35:45.653Z,123.29
2023-05-20T01:37:45.737Z,123.29
2023-05-20T01:39:45.294Z,123.29
2023-05-20T01:41:45.140Z,123.29
2023-05-20T01:43:44.884Z,123.29
2023-05-20T01:45:45.912Z,120.42
2023-05-20T01:47:45.431Z,120.42
2023-05-20T01:49:45.922Z,120.42
2023-05-20T01:51:45.746Z,0.33
2023-05-20T01:53:44.975Z,0.33
2023-05-20T01:55:45.877Z,0.33
2023-05-20T01:57:45.117Z,120.42
2023-05-20T01:59:45.651Z,120.42
2023-05-20T02:01:48.671Z,120.42
2023-05-20T02:03:45.869Z,0.33
2023-05-20T02:05:46.048Z,0.33
2023-05-20T02:07:45.222Z,0.33
2023-05-20T02:09:45.724Z,0.33
2023-05-20T02:11:45.346Z,0.33
2023-05-20T02:13:45.676Z,0.33
2023-05-20T02:15:46.313Z,117.59
2023-05-20T02:17:45.778Z,117.59
2023-05-20T02:19:45.296Z,117.59
2023-05-20T02:21:45.767Z,0.32
2023-05-20T02:23:45.123Z,0.32
2023-05-20T02:25:45.361Z,0.32
2023-05-20T02:27:45.369Z,0.32
2023-05-20T02:29:45.176Z,0.32
2023-05-20T02:31:45.844Z,0.32
2023-05-20T02:33:45.606Z,114.8
2023-05-20T02:35:45.854Z,114.8
2023-05-20T02:37:45.705Z,114.8
2023-05-20T02:39:45.327Z,0.31
2023-05-20T02:41:44.886Z,0.31
2023-05-20T02:43:45.244Z,0.31
2023-05-20T02:45:45.299Z,0.31
2023-05-20T02:47:46.045Z,0.31
2023-05-20T02:49:45.445Z,0.31
2023-05-20T02:51:45.647Z,114.8
2023-05-20T02:53:45.394Z,114.8
2023-05-20T02:55:45.363Z,114.8
2023-05-20T02:57:45.607Z,114.8
2023-05-20T02:59:45.060Z,114.8
2023-05-20T03:01:49.236Z,114.8
2023-05-20T03:03:45.767Z,0.3
2023-05-20T03:05:46.003Z,0.3
2023-05-20T03:07:45.866Z,0.3
2023-05-20T03:09:45.199Z,0.3
2023-05-20T03:11:45.171Z,0.3
2023-05-20T03:13:45.476Z,0.3
2023-05-20T03:15:45.746Z,114.8
2023-05-20T03:17:46.078Z,114.8
2023-05-20T03:19:45.662Z,114.8
2023-05-20T03:21:45.291Z,0.31
2023-05-20T03:23:45.621Z,0.31
2023-05-20T03:25:45.644Z,0.31
2023-05-20T03:27:45.006Z,0.3
2023-05-20T03:29:45.255Z,0.3
2023-05-20T03:31:45.639Z,0.3
2023-05-20T03:33:45.801Z,0.3
2023-05-20T03:35:45.496Z,0.3
2023-05-20T03:37:45.694Z,0.3
2023-05-20T03:39:45.193Z,112.05
2023-05-20T03:41:45.149Z,112.05
2023-05-20T03:43:45.632Z,112.05
2023-05-20T03:45:45.704Z,0.3
2023-05-20T03:47:46.333Z,0.3
2023-05-20T03:49:45.598Z,0.3
2023-05-20T03:51:45.438Z,0.3
2023-05-20T03:53:45.769Z,0.3
2023-05-20T03:55:45.794Z,0.3
2023-05-20T03:57:44.602Z,0.3
2023-05-20T03:59:45.493Z,0.3
2023-05-20T04:01:49.140Z,0.3
2023-05-20T04:03:46.455Z,112.05
2023-05-20T04:05:46.305Z,112.05
2023-05-20T04:07:47.046Z,112.05
2023-05-20T04:09:45.872Z,0.3
2023-05-20T04:11:45.523Z,0.3
2023-05-20T04:13:45.144Z,0.3
2023-05-20T04:15:45.833Z,0.3
2023-05-20T04:17:45.432Z,0.3
2023-05-20T04:19:46.516Z,0.3
2023-05-20T04:21:45.692Z,0.3
2023-05-20T04:23:44.980Z,0.3
2023-05-20T04:25:45.874Z,0.3
2023-05-20T04:27:44.903Z,0.31
2023-05-20T04:29:45.763Z,0.31
2023-05-20T04:31:46.035Z,0.31
2023-05-20T04:33:45.269Z,114.8
2023-05-20T04:35:46.049Z,114.8
2023-05-20T04:37:45.122Z,114.8
2023-05-20T04:39:48.531Z,114.8
2023-05-20T04:41:45.524Z,114.8
2023-05-20T04:43:45.033Z,114.8
2023-05-20T04:45:46.212Z,114.8
2023-05-20T04:47:45.688Z,114.8
2023-05-20T04:49:45.157Z,114.8
2023-05-20T04:51:45.942Z,114.8
2023-05-20T04:53:46.290Z,114.8
2023-05-20T04:55:46.429Z,114.8
2023-05-20T04:57:45.267Z,0.31
2023-05-20T04:59:44.979Z,0.31
2023-05-20T05:01:49.529Z,0.31
2023-05-20T05:03:48.370Z,0.31
2023-05-20T05:05:45.421Z,0.31
2023-05-20T05:07:46.039Z,0.31
2023-05-20T05:09:46.543Z,114.8
2023-05-20T05:11:45.014Z,114.8
2023-05-20T05:13:45.681Z,114.8
2023-05-20T05:15:45.790Z,112.05
2023-05-20T05:17:45.756Z,112.05
2023-05-20T05:19:46.508Z,112.05
2023-05-20T05:21:46.143Z,0.3
2023-05-20T05:23:45.498Z,0.3
2023-05-20T05:25:45.634Z,0.3
2023-05-20T05:27:45.896Z,0.3
2023-05-20T05:29:46.313Z,0.3
2023-05-20T05:31:46.104Z,0.3
2023-05-20T05:33:46.478Z,0.31
2023-05-20T05:35:45.426Z,0.31
2023-05-20T05:37:45.521Z,0.31
2023-05-20T05:39:44.929Z,0.31
2023-05-20T05:41:45.991Z,0.31
2023-05-20T05:43:45.618Z,0.31
2023-05-20T05:45:45.633Z,117.59
2023-05-20T05:47:46.269Z,117.59
2023-05-20T05:49:45.301Z,117.59
2023-05-20T05:51:49.028Z,117.59
2023-05-20T05:53:45.713Z,117.59
2023-05-20T05:55:45.471Z,117.59
2023-05-20T05:57:45.628Z,0.32
2023-05-20T05:59:45.261Z,0.32
2023-05-20T06:01:48.374Z,0.32
2023-05-20T06:03:47.246Z,0.32
2023-05-20T06:05:46.123Z,0.32
2023-05-20T06:07:45.490Z,0.32
2023-05-20T06:09:45.003Z,0.32
2023-05-20T06:11:45.909Z,0.32
2023-05-20T06:13:46.422Z,0.32
2023-05-20T06:15:45.438Z,0.32
2023-05-20T06:17:46.156Z,0.32
2023-05-20T06:19:49.609Z,0.32
2023-05-20T06:21:45.089Z,117.59
2023-05-20T06:23:45.470Z,117.59
2023-05-20T06:25:45.390Z,117.59
2023-05-20T06:27:45.271Z,120.42
2023-05-20T06:29:44.951Z,120.42
2023-05-20T06:31:46.626Z,120.42
2023-05-20T06:33:46.000Z,120.42
2023-05-20T06:35:45.051Z,120.42
2023-05-20T06:37:45.849Z,120.42
2023-05-20T06:39:45.508Z,126.21
2023-05-20T06:41:45.833Z,126.21
2023-05-20T06:43:45.231Z,126.21
2023-05-20T06:45:46.271Z,126.21
2023-05-20T06:47:45.916Z,126.21
2023-05-20T06:49:47.661Z,126.21
2023-05-20T06:51:45.800Z,123.29
2023-05-20T06:53:44.846Z,123.29
2023-05-20T06:55:46.082Z,123.29
2023-05-20T06:57:45.375Z,0.33
2023-05-20T06:59:45.576Z,0.33
2023-05-20T07:01:52.522Z,0.33
2023-05-20T07:03:45.295Z,123.29
2023-05-20T07:05:46.303Z,123.29
2023-05-20T07:07:45.058Z,123.29
2023-05-20T07:09:45.620Z,123.29
2023-05-20T07:11:45.521Z,123.29
2023-05-20T07:13:45.962Z,123.29
2023-05-20T07:15:45.641Z,0.33
2023-05-20T07:17:45.486Z,0.33
2023-05-20T07:19:46.153Z,0.33
2023-05-20T07:21:45.522Z,0.33
2023-05-20T07:23:47.335Z,0.33
2023-05-20T07:25:45.823Z,0.33
2023-05-20T07:27:44.868Z,123.29
2023-05-20T07:29:45.509Z,123.29
2023-05-20T07:31:45.597Z,123.29
2023-05-20T07:33:45.983Z,0.33
2023-05-20T07:35:45.492Z,0.33
2023-05-20T07:37:44.872Z,0.33
2023-05-20T07:40:01.554Z,123.29
2023-05-20T07:41:45.329Z,123.29
2023-05-20T07:43:45.547Z,123.29
2023-05-20T07:45:45.847Z,126.21
2023-05-20T07:47:46.158Z,126.21
2023-05-20T07:49:45.348Z,126.21
2023-05-20T07:51:45.157Z,126.21
2023-05-20T07:55:45.393Z,126.21
2023-05-20T07:57:45.607Z,0.34
2023-05-20T07:59:45.237Z,0.34
2023-05-20T08:01:44.954Z,0.34
2023-05-20T08:03:47.377Z,0.34
2023-05-20T08:05:46.098Z,0.34
2023-05-20T08:07:46.670Z,0.34
2023-05-20T08:09:45.770Z,0.34
2023-05-20T08:11:47.357Z,0.34
2023-05-20T08:13:44.725Z,0.34
2023-05-20T08:15:45.731Z,0.34
2023-05-20T08:17:45.766Z,0.34
2023-05-20T08:19:46.364Z,0.34
2023-05-20T08:21:45.439Z,0.34
2023-05-20T08:23:50.388Z,0.34
2023-05-20T08:25:46.051Z,0.34
2023-05-20T08:27:45.528Z,0.35
2023-05-20T08:29:44.772Z,0.35
2023-05-20T08:31:46.019Z,0.35
2023-05-20T08:33:45.467Z,0.36
2023-05-20T08:35:48.111Z,0.36
2023-05-20T08:37:45.265Z,0.36
2023-05-20T08:39:45.027Z,0.36
2023-05-20T08:41:47.265Z,0.36
2023-05-20T08:43:45.128Z,0.36
2023-05-20T08:45:46.064Z,132.17
2023-05-20T08:47:45.458Z,132.17
2023-05-20T08:49:45.652Z,132.17
2023-05-20T08:51:46.995Z,0.37
2023-05-20T08:53:45.224Z,0.37
2023-05-20T08:55:46.088Z,0.37
2023-05-20T08:57:45.027Z,0.37
2023-05-20T08:59:44.593Z,0.37
2023-05-20T09:01:49.614Z,0.37
2023-05-20T09:03:47.524Z,0.37
2023-05-20T09:05:46.360Z,0.37
2023-05-20T09:07:44.771Z,0.37
2023-05-20T09:09:48.567Z,0.37
2023-05-20T09:11:45.114Z,0.37
2023-05-20T09:13:47.172Z,0.37
2023-05-20T09:15:45.694Z,138.31
2023-05-20T09:17:46.295Z,138.31
2023-05-20T09:19:47.946Z,138.31
2023-05-20T09:21:46.542Z,0.37
2023-05-20T09:23:45.431Z,0.37
2023-05-20T09:25:47.764Z,0.37
2023-05-20T09:27:45.321Z,0.37
2023-05-20T09:29:45.011Z,0.37
2023-05-20T09:31:45.970Z,0.37
2023-05-20T09:33:45.750Z,0.36
2023-05-20T09:35:45.090Z,0.36
2023-05-20T09:37:48.633Z,0.36
2023-05-20T09:39:45.097Z,0.36
2023-05-20T09:41:45.633Z,0.36
2023-05-20T09:43:47.147Z,0.36
2023-05-20T09:45:45.876Z,0.35
2023-05-20T09:47:45.400Z,0.35
2023-05-20T09:49:45.753Z,0.35
2023-05-20T09:51:45.131Z,129.17
2023-05-20T09:53:45.395Z,129.17
2023-05-20T09:55:45.992Z,129.17
2023-05-20T09:57:45.104Z,0.34
2023-05-20T09:59:48.228Z,0.34
2023-05-20T10:01:49.574Z,0.34
2023-05-20T10:03:47.044Z,0.34
2023-05-20T10:05:45.735Z,0.34
2023-05-20T10:07:57.202Z,0.34
2023-05-20T10:09:45.144Z,0.34
2023-05-20T10:11:45.705Z,0.34
2023-05-20T10:13:44.950Z,0.34
2023-05-20T10:15:46.493Z,0.33
2023-05-20T10:17:45.483Z,0.33
2023-05-20T10:19:46.111Z,0.33
2023-05-20T10:21:45.649Z,0.33
2023-05-20T10:23:45.110Z,0.33
2023-05-20T10:25:46.904Z,0.33
2023-05-20T10:27:45.215Z,129.17
2023-05-20T10:29:46.277Z,129.17
2023-05-20T10:31:45.628Z,129.17
2023-05-20T10:33:47.000Z,0.35
2023-05-20T10:35:45.540Z,0.35
2023-05-20T10:37:45.056Z,0.35
2023-05-20T10:39:45.333Z,0.35
2023-05-20T10:41:45.408Z,0.35
2023-05-20T10:43:47.202Z,0.35
2023-05-20T10:45:45.106Z,0.35
2023-05-20T10:49:50.618Z,0.35
2023-05-20T10:51:45.887Z,0.36
2023-05-20T10:53:57.993Z,0.36
2023-05-20T10:55:49.215Z,0.36
2023-05-20T10:57:45.806Z,0.36
2023-05-20T10:59:45.578Z,0.36
2023-05-20T11:01:52.392Z,0.36
2023-05-20T11:03:47.251Z,0.36
2023-05-20T11:05:46.656Z,0.36
2023-05-20T11:07:47.601Z,0.36
2023-05-20T11:09:52.183Z,141.45
2023-05-20T11:11:45.350Z,141.45
2023-05-20T11:13:49.414Z,141.45
2023-05-20T11:15:45.817Z,0.4
2023-05-20T11:17:46.194Z,0.4
2023-05-20T11:19:46.191Z,0.4
2023-05-20T11:21:45.803Z,151.12
2023-05-20T11:23:45.423Z,151.12
2023-05-20T11:25:45.562Z,151.12
2023-05-20T11:27:44.836Z,0.42
2023-05-20T11:29:47.480Z,0.42
2023-05-20T11:31:46.298Z,0.42
2023-05-20T11:33:45.653Z,0.44
2023-05-20T11:35:48.184Z,0.44
2023-05-20T11:37:48.848Z,0.44
2023-05-20T11:39:45.281Z,182.61
2023-05-20T11:42:00.386Z,182.61
2023-05-20T11:43:45.303Z,182.61
2023-05-20T11:45:47.256Z,0.89
2023-05-20T11:47:45.910Z,0.89
2023-05-20T11:49:45.813Z,0.89
2023-05-20T11:51:48.303Z,373.78
2023-05-20T11:53:45.032Z,373.78
2023-05-20T11:55:45.618Z,373.78
2023-05-20T11:57:45.207Z,1.23
2023-05-20T11:59:45.724Z,1.23
2023-05-20T12:03:50.056Z,317.41
2023-05-20T12:05:45.743Z,317.41
2023-05-20T12:07:45.333Z,317.41
2023-05-20T12:09:45.838Z,436.58
2023-05-20T12:11:45.957Z,436.58
2023-05-20T12:13:47.057Z,436.58
2023-05-20T12:15:45.309Z,1.11
2023-05-20T12:17:45.533Z,1.11
2023-05-20T12:19:48.527Z,1.11
2023-05-20T12:21:45.812Z,306.87
2023-05-20T12:23:45.443Z,306.87
2023-05-20T12:25:44.928Z,306.87
2023-05-20T12:27:45.778Z,373.78
2023-05-20T12:29:45.542Z,373.78
2023-05-20T12:31:46.902Z,373.78
2023-05-20T12:33:45.746Z,257.63
2023-05-20T12:35:45.324Z,257.63
2023-05-20T12:37:48.123Z,257.63
2023-05-20T12:39:45.445Z,197.85
2023-05-20T12:41:45.546Z,197.85
2023-05-20T12:43:48.375Z,197.85
2023-05-20T12:45:45.094Z,0.47
2023-05-20T12:47:46.018Z,0.47
2023-05-20T12:49:45.289Z,0.47
2023-05-20T12:51:46.290Z,0.45
2023-05-20T12:53:54.950Z,0.45
2023-05-20T12:55:44.643Z,0.45
2023-05-20T12:57:45.616Z,0.43
2023-05-20T12:59:45.058Z,0.43
2023-05-20T13:01:50.613Z,0.43
2023-05-20T13:03:49.878Z,0.43
2023-05-20T13:05:45.255Z,0.43
2023-05-20T13:07:45.600Z,0.43
2023-05-20T13:09:47.091Z,0.41
2023-05-20T13:11:46.447Z,0.41
2023-05-20T13:13:45.393Z,0.41
2023-05-20T13:15:45.371Z,154.43
2023-05-20T13:17:45.761Z,154.43
2023-05-20T13:19:45.584Z,154.43
2023-05-20T13:21:46.053Z,0.41
2023-05-20T13:23:45.189Z,0.41
2023-05-20T13:25:45.454Z,0.41
2023-05-20T13:27:45.127Z,157.79
2023-05-20T13:29:45.914Z,157.79
2023-05-20T13:31:46.227Z,157.79
2023-05-20T13:33:45.906Z,154.43
2023-05-20T13:35:45.238Z,154.43
2023-05-20T13:37:45.387Z,154.43
2023-05-20T13:39:46.608Z,0.42
2023-05-20T13:41:46.189Z,0.42
2023-05-20T13:43:45.410Z,0.42
2023-05-20T13:45:44.898Z,0.43
2023-05-20T13:47:46.049Z,0.43
2023-05-20T13:49:44.731Z,0.43
2023-05-20T13:51:46.944Z,154.43
2023-05-20T13:53:45.099Z,154.43
2023-05-20T13:55:47.657Z,154.43
2023-05-20T13:57:44.956Z,0.42
2023-05-20T13:59:45.806Z,0.42
2023-05-20T14:01:53.158Z,0.42
2023-05-20T14:03:46.948Z,154.43
2023-05-20T14:05:45.602Z,154.43
2023-05-20T14:07:45.486Z,154.43
2023-05-20T14:09:45.062Z,151.12
2023-05-20T14:11:46.243Z,151.12
2023-05-20T14:13:45.691Z,151.12
2023-05-20T14:15:44.853Z,0.43
2023-05-20T14:17:45.741Z,0.43
2023-05-20T14:19:45.704Z,0.43
2023-05-20T14:21:46.525Z,0.42
2023-05-20T14:23:45.473Z,0.42
2023-05-20T14:25:44.984Z,0.42
2023-05-20T14:27:45.788Z,157.79
2023-05-20T14:29:45.687Z,157.79
2023-05-20T14:31:45.942Z,157.79
2023-05-20T14:33:46.215Z,0.43
2023-05-20T14:35:45.270Z,0.43
2023-05-20T14:37:45.654Z,0.43
2023-05-20T14:39:47.264Z,154.43
2023-05-20T14:41:46.394Z,154.43
2023-05-20T14:43:45.442Z,154.43
2023-05-20T14:45:46.995Z,0.43
2023-05-20T14:47:46.411Z,0.43
2023-05-20T14:49:45.472Z,0.43
2023-05-20T14:51:47.415Z,0.43
2023-05-20T14:53:45.119Z,0.43
2023-05-20T14:55:45.993Z,0.43
2023-05-20T14:57:47.466Z,0.42
2023-05-20T14:59:44.958Z,0.42
2023-05-20T15:01:49.585Z,0.42
2023-05-20T15:03:46.799Z,151.12
2023-05-20T15:05:45.006Z,151.12
2023-05-20T15:07:46.872Z,151.12
2023-05-20T15:09:45.798Z,0.41
2023-05-20T15:11:45.873Z,0.41
2023-05-20T15:13:44.991Z,0.41
2023-05-20T15:15:45.458Z,0.42
2023-05-20T15:17:45.780Z,0.42
2023-05-20T15:19:46.479Z,0.42
2023-05-20T15:21:45.405Z,0.39
2023-05-20T15:23:46.967Z,0.39
2023-05-20T15:25:46.120Z,0.39
2023-05-20T15:27:45.155Z,141.45
2023-05-20T15:29:45.284Z,141.45
2023-05-20T15:31:45.640Z,141.45
2023-05-20T15:33:47.173Z,0.39
2023-05-20T15:35:46.117Z,0.39
2023-05-20T15:37:45.559Z,0.39
2023-05-20T15:39:45.271Z,141.45
2023-05-20T15:41:46.016Z,141.45
2023-05-20T15:43:45.495Z,141.45
2023-05-20T15:45:45.154Z,0.37
2023-05-20T15:47:46.103Z,0.37
2023-05-20T15:49:45.849Z,0.37
2023-05-20T15:51:52.211Z,141.45
2023-05-20T15:53:52.089Z,141.45
2023-05-20T15:55:45.275Z,141.45
2023-05-20T15:57:45.541Z,141.45
2023-05-20T15:59:45.336Z,141.45
2023-05-20T16:01:45.388Z,141.45
2023-05-20T16:03:47.429Z,0.37
2023-05-20T16:05:45.966Z,0.37
2023-05-20T16:07:45.553Z,0.37
2023-05-20T16:09:45.141Z,0.38
2023-05-20T16:11:46.610Z,0.38
2023-05-20T16:13:45.176Z,0.38
2023-05-20T16:15:45.677Z,0.37
2023-05-20T16:17:46.046Z,0.37
2023-05-20T16:19:46.612Z,0.37
2023-05-20T16:21:45.878Z,0.37
2023-05-20T16:23:45.178Z,0.37
2023-05-20T16:25:45.661Z,0.37
2023-05-20T16:27:45.025Z,0.36
2023-05-20T16:29:45.568Z,0.36
2023-05-20T16:31:46.108Z,0.36
2023-05-20T16:33:45.304Z,135.22
2023-05-20T16:35:45.521Z,135.22
2023-05-20T16:37:44.861Z,135.22
2023-05-20T16:39:45.457Z,135.22
2023-05-20T16:41:45.309Z,135.22
2023-05-20T16:43:45.476Z,135.22
2023-05-20T16:45:45.480Z,129.17
2023-05-20T16:47:45.835Z,129.17
2023-05-20T16:49:45.173Z,129.17
2023-05-20T16:51:46.089Z,0.37
2023-05-20T16:53:45.730Z,0.37
2023-05-20T16:55:45.108Z,0.37
2023-05-20T16:57:45.452Z,135.22
2023-05-20T16:59:48.325Z,135.22
2023-05-20T17:01:49.466Z,135.22
2023-05-20T17:03:45.942Z,0.36
2023-05-20T17:05:45.416Z,0.36
2023-05-20T17:07:46.071Z,0.36
2023-05-20T17:09:45.104Z,0.36
2023-05-20T17:11:45.998Z,0.36
2023-05-20T17:13:45.321Z,0.36
2023-05-20T17:15:44.914Z,0.36
2023-05-20T17:17:46.218Z,0.36
2023-05-20T17:19:46.613Z,0.36
2023-05-20T17:21:46.002Z,0.35
2023-05-20T17:23:45.274Z,0.35
2023-05-20T17:25:45.976Z,0.35
2023-05-20T17:27:45.133Z,0.35
2023-05-20T17:29:45.555Z,0.35
2023-05-20T17:31:45.606Z,0.35
2023-05-20T17:33:45.734Z,0.35
2023-05-20T17:35:45.687Z,0.35
2023-05-20T17:37:45.167Z,0.35
2023-05-20T17:39:45.546Z,129.17
2023-05-20T17:41:45.631Z,129.17
2023-05-20T17:43:45.783Z,129.17
2023-05-20T17:45:45.330Z,0.35
2023-05-20T17:47:45.617Z,0.35
2023-05-20T17:49:45.910Z,0.35
2023-05-20T17:51:45.873Z,0.37
2023-05-20T17:53:45.305Z,0.37
2023-05-20T17:55:45.614Z,0.37
2023-05-20T17:57:45.274Z,0.38
2023-05-20T17:59:44.882Z,0.38
2023-05-20T18:01:48.497Z,0.38
2023-05-20T18:03:46.850Z,144.62
2023-05-20T18:05:45.609Z,144.62
2023-05-20T18:07:45.389Z,144.62
2023-05-20T18:09:45.148Z,0.41
2023-05-20T18:11:46.057Z,0.41
2023-05-20T18:13:45.297Z,0.41
2023-05-20T18:15:44.931Z,0.42
2023-05-20T18:17:45.983Z,0.42
2023-05-20T18:19:45.900Z,0.42
2023-05-20T18:21:45.511Z,157.79
2023-05-20T18:23:45.774Z,157.79
2023-05-20T18:25:45.465Z,157.79
2023-05-20T18:27:45.028Z,161.2
2023-05-20T18:29:45.579Z,161.2
2023-05-20T18:31:46.107Z,161.2
2023-05-20T18:33:45.592Z,0.44
2023-05-20T18:35:45.634Z,0.44
2023-05-20T18:37:45.058Z,0.44
2023-05-20T18:39:48.634Z,0.44
2023-05-20T18:41:59.037Z,0.44
2023-05-20T18:43:45.383Z,0.44
2023-05-20T18:45:48.021Z,0.44
2023-05-20T18:47:45.807Z,0.44
2023-05-20T18:49:55.024Z,0.44
2023-05-20T18:51:46.314Z,161.2
2023-05-20T18:53:45.293Z,161.2
2023-05-20T18:55:45.112Z,161.2
2023-05-20T18:57:45.390Z,0.45
2023-05-20T18:59:47.587Z,0.45
2023-05-20T19:01:48.982Z,0.45
2023-05-20T19:03:45.299Z,0.44
2023-05-20T19:05:46.372Z,0.44
2023-05-20T19:07:45.443Z,0.44
2023-05-20T19:09:44.653Z,0.45
2023-05-20T19:11:47.778Z,0.45
2023-05-20T19:13:45.224Z,0.45
2023-05-20T19:15:46.296Z,0.45
2023-05-20T19:17:45.734Z,0.45
2023-05-20T19:19:45.568Z,0.45
2023-05-20T19:21:45.898Z,0.45
2023-05-20T19:23:45.446Z,0.45
2023-05-20T19:25:45.265Z,0.45
2023-05-20T19:27:45.159Z,0.45
2023-05-20T19:29:45.047Z,0.45
2023-05-20T19:31:46.030Z,0.45
2023-05-20T19:33:45.323Z,157.79
2023-05-20T19:35:45.930Z,157.79
2023-05-20T19:37:46.405Z,157.79
2023-05-20T19:39:45.242Z,61.48
2023-05-20T19:41:45.280Z,61.48
2023-05-20T19:43:46.196Z,61.48
2023-05-20T19:45:45.563Z,0.09
2023-05-20T19:47:46.146Z,0.09
2023-05-20T19:49:45.654Z,0.09
2023-05-20T19:51:45.607Z,23.36
2023-05-20T19:53:44.766Z,23.36
2023-05-20T19:55:45.451Z,23.36
2023-05-20T19:57:45.169Z,0.05
2023-05-20T19:59:45.808Z,0.05
2023-05-20T20:01:48.435Z,0.05
2023-05-20T20:03:45.390Z,17.43
2023-05-20T20:05:47.682Z,17.43
2023-05-20T20:07:46.100Z,17.43
2023-05-20T20:09:45.306Z,0.05
2023-05-20T20:11:45.207Z,0.05
2023-05-20T20:13:45.616Z,0.05
2023-05-20T20:15:45.907Z,15.68
2023-05-20T20:17:46.520Z,15.68
2023-05-20T20:19:46.547Z,15.68
2023-05-20T20:21:45.644Z,0.04
2023-05-20T20:23:45.194Z,0.04
2023-05-20T20:25:45.412Z,0.04
2023-05-20T20:27:45.737Z,0.04
2023-05-20T20:29:44.929Z,0.04
2023-05-20T20:31:45.883Z,0.04
2023-05-20T20:33:47.405Z,17.43
2023-05-20T20:35:46.331Z,17.43
2023-05-20T20:37:45.232Z,17.43
2023-05-20T20:39:44.739Z,18.35
2023-05-20T20:41:46.099Z,18.35
2023-05-20T20:43:45.232Z,18.35
2023-05-20T20:45:45.158Z,0.05
2023-05-20T20:47:46.178Z,0.05
2023-05-20T20:49:45.522Z,0.05
2023-05-20T20:51:45.594Z,0.05
2023-05-20T20:53:45.017Z,0.05
2023-05-20T20:55:46.488Z,0.05
2023-05-20T20:57:45.189Z,0.06
2023-05-20T20:59:44.928Z,0.06
2023-05-20T21:01:52.948Z,0.06
2023-05-20T21:03:46.401Z,22.3
2023-05-20T21:05:46.638Z,22.3
2023-05-20T21:07:47.666Z,22.3
2023-05-20T21:09:45.633Z,23.36
2023-05-20T21:11:45.143Z,23.36
2023-05-20T21:13:45.525Z,23.36
2023-05-20T21:15:45.384Z,0.04
2023-05-20T21:17:46.753Z,0.04
2023-05-20T21:19:45.616Z,0.04
2023-05-20T21:21:45.165Z,0.03
2023-05-20T21:23:44.922Z,0.03
2023-05-20T21:25:46.024Z,0.03
2023-05-20T21:27:44.976Z,0.03
2023-05-20T21:29:45.662Z,0.03
2023-05-20T21:31:46.122Z,0.03
2023-05-20T21:33:45.880Z,0.04
2023-05-20T21:35:46.180Z,0.04
2023-05-20T21:37:45.191Z,0.04
2023-05-20T21:39:44.909Z,0.05
2023-05-20T21:41:45.782Z,0.05
2023-05-20T21:43:45.553Z,0.05
2023-05-20T21:45:45.148Z,0.06
2023-05-20T21:47:46.100Z,0.06
2023-05-20T21:49:45.144Z,0.06
2023-05-20T21:51:45.863Z,0.07
2023-05-20T21:53:45.450Z,0.07
2023-05-20T21:55:45.177Z,0.07
2023-05-20T21:57:45.565Z,0.09
2023-05-20T21:59:44.935Z,0.09
2023-05-20T22:01:54.150Z,0.09
2023-05-20T22:03:49.491Z,36.9
2023-05-20T22:05:46.196Z,36.9
2023-05-20T22:07:45.081Z,36.9
2023-05-20T22:09:45.288Z,38.31
2023-05-20T22:11:45.221Z,38.31
2023-05-20T22:13:45.325Z,38.31
2023-05-20T22:15:45.271Z,0.11
2023-05-20T22:17:46.313Z,0.11
2023-05-20T22:19:45.330Z,0.11
2023-05-20T22:22:00.868Z,0.12
2023-05-20T22:23:44.994Z,0.12
2023-05-20T22:25:45.733Z,0.12
2023-05-20T22:27:45.188Z,0.13
2023-05-20T22:29:45.641Z,0.13
2023-05-20T22:31:45.833Z,0.13
2023-05-20T22:33:45.534Z,0.14
2023-05-20T22:35:45.493Z,0.14
2023-05-20T22:37:44.995Z,0.14
2023-05-20T22:39:45.543Z,54.2
2023-05-20T22:41:45.328Z,54.2
2023-05-20T22:43:45.635Z,54.2
2023-05-20T22:45:45.196Z,0.16
2023-05-20T22:47:46.537Z,0.16
2023-05-20T22:49:45.657Z,0.16
2023-05-20T22:51:49.704Z,61.48
2023-05-20T22:53:45.368Z,61.48
2023-05-20T22:55:45.476Z,61.48
2023-05-20T22:57:45.772Z,0.18
2023-05-20T22:59:45.202Z,0.18
2023-05-20T23:01:49.697Z,0.18
2023-05-20T23:03:46.260Z,0.19
2023-05-20T23:05:46.014Z,0.19
2023-05-20T23:07:45.801Z,0.19
2023-05-20T23:09:45.516Z,73.47
2023-05-20T23:11:45.897Z,73.47
2023-05-20T23:13:45.686Z,73.47
2023-05-20T23:15:46.203Z,0.2
2023-05-20T23:17:46.339Z,0.2
2023-05-20T23:19:46.705Z,0.2
2023-05-20T23:21:45.572Z,75.6
2023-05-20T23:24:06.041Z,75.6
2023-05-20T23:25:46.580Z,75.6
2023-05-20T23:27:45.431Z,0.2
2023-05-20T23:29:45.344Z,0.2
2023-05-20T23:31:45.084Z,0.2
2023-05-20T23:33:49.142Z,0.2
2023-05-20T23:35:45.876Z,0.2
2023-05-20T23:37:45.804Z,0.2
2023-05-20T23:39:45.353Z,0.2
2023-05-20T23:41:44.999Z,0.2
2023-05-20T23:43:45.316Z,0.2
2023-05-20T23:45:45.362Z,75.6
2023-05-20T23:47:45.882Z,75.6
2023-05-20T23:49:47.927Z,75.6
2023-05-20T23:51:45.091Z,0.21
2023-05-20T23:53:45.728Z,0.21
2023-05-20T23:55:45.295Z,0.21
2023-05-20T23:57:45.075Z,77.76
2023-05-20T23:59:45.592Z,77.76
